Jardim, Brazil
Current Conditions -  °F | °C
As of 12:00 AM on Wednesday 22 Oct 2014 (Local Time) from SBJU Reporting Station
Few Clouds Few Clouds  
Wind Chill: 86°   Ceiling: Unl
Heat Index: 88°   Visibility: 6mi
Dew Point: 66°   Wind: 8mph
Humidity: 51%   Direction: 20°NNE
Pressure: 29.97"   Gusts: NA
Location:  7.58°S, 39.3°W
Report Text: SBJU 220300Z 02007KT 9999 FEW020 30/19 Q1015
Loading
Personal Weather Stations






























Interactive Weather Map
Tropical Storm Tracking
New forecast layout! Learn more

10-Day Weather Forecast

Advertisements
Track Severe Weather on mobile